Pokaż wyniki od 1 do 8 z 8
  1. #1
    Awatar Marcinh50

    Dołączył
    Apr 2012
    Mieszka w
    Kraków

    Domyślnie 2016.01.03 a "za chłopem"


    Polecamy


    W chwili obecnej tyle.
    Pozdrawiam

  2. #2
    Awatar Marcinh50

    Dołączył
    Apr 2012
    Mieszka w
    Kraków

    Domyślnie


  3. #3
    Awatar Marcinh50

    Dołączył
    Apr 2012
    Mieszka w
    Kraków

    Domyślnie


  4. #4
    Awatar Marcinh50

    Dołączył
    Apr 2012
    Mieszka w
    Kraków

    Domyślnie


  5. #5
    Awatar Marcinh50

    Dołączył
    Apr 2012
    Mieszka w
    Kraków

    Domyślnie


  6. #6
    Awatar Marcinh50

    Dołączył
    Apr 2012
    Mieszka w
    Kraków

    Domyślnie


  7. #7

  8. #8
    Moderator Senior Screener
    Awatar Pzlm28

    Dołączył
    Jun 2009
    Mieszka w
    EPKK

    Domyślnie


    Polecamy

    METAR EPKK 030700Z 07010KT 9999 BKN009 M15/M17 Q1023

    .................Don't let me die, I want to fly

Uprawnienia umieszczania postów

  • Nie możesz zakładać nowych tematów
  • Nie możesz pisać wiadomości
  • Nie możesz dodawać załączników
  • Nie możesz edytować swoich postów
  •